sensor_id;sensor_type;location;lat;lon;timestamp;temperature;humidity
46366;DHT22;32073;49.166;8.076;2022-07-23T00:01:46;28.00;44.80
46366;DHT22;32073;49.166;8.076;2022-07-23T00:05:48;28.00;44.80
46366;DHT22;32073;49.166;8.076;2022-07-23T00:09:48;27.90;44.80
46366;DHT22;32073;49.166;8.076;2022-07-23T00:13:49;27.90;44.90
46366;DHT22;32073;49.166;8.076;2022-07-23T00:17:50;27.80;44.90
46366;DHT22;32073;49.166;8.076;2022-07-23T00:21:51;27.80;45.10
46366;DHT22;32073;49.166;8.076;2022-07-23T00:25:52;27.70;45.20
46366;DHT22;32073;49.166;8.076;2022-07-23T00:29:52;27.70;45.20
46366;DHT22;32073;49.166;8.076;2022-07-23T00:33:53;27.60;45.20
46366;DHT22;32073;49.166;8.076;2022-07-23T00:37:57;27.60;45.30
46366;DHT22;32073;49.166;8.076;2022-07-23T00:41:59;27.60;45.40
46366;DHT22;32073;49.166;8.076;2022-07-23T00:46:00;27.60;45.40
46366;DHT22;32073;49.166;8.076;2022-07-23T00:50:03;27.60;45.50
46366;DHT22;32073;49.166;8.076;2022-07-23T00:54:04;27.60;46.20
46366;DHT22;32073;49.166;8.076;2022-07-23T00:58:06;27.60;45.60
46366;DHT22;32073;49.166;8.076;2022-07-23T01:02:06;27.60;45.70
46366;DHT22;32073;49.166;8.076;2022-07-23T01:06:07;27.60;45.70
46366;DHT22;32073;49.166;8.076;2022-07-23T01:10:08;27.50;45.70
46366;DHT22;32073;49.166;8.076;2022-07-23T01:14:28;27.50;45.60
46366;DHT22;32073;49.166;8.076;2022-07-23T01:18:28;27.50;45.70
46366;DHT22;32073;49.166;8.076;2022-07-23T01:22:29;27.50;45.70
46366;DHT22;32073;49.166;8.076;2022-07-23T01:26:30;27.60;45.70
46366;DHT22;32073;49.166;8.076;2022-07-23T01:30:31;27.60;45.70
46366;DHT22;32073;49.166;8.076;2022-07-23T01:34:32;27.60;45.80
46366;DHT22;32073;49.166;8.076;2022-07-23T01:38:32;27.50;45.70
46366;DHT22;32073;49.166;8.076;2022-07-23T01:42:33;27.50;45.60
46366;DHT22;32073;49.166;8.076;2022-07-23T01:46:34;27.50;45.40
46366;DHT22;32073;49.166;8.076;2022-07-23T01:50:35;27.40;45.20
46366;DHT22;32073;49.166;8.076;2022-07-23T01:54:38;27.30;45.20
46366;DHT22;32073;49.166;8.076;2022-07-23T01:58:39;27.20;45.20
46366;DHT22;32073;49.166;8.076;2022-07-23T02:02:40;27.20;45.20
46366;DHT22;32073;49.166;8.076;2022-07-23T02:06:41;27.10;45.30
46366;DHT22;32073;49.166;8.076;2022-07-23T02:10:42;27.10;45.40
46366;DHT22;32073;49.166;8.076;2022-07-23T02:14:42;27.00;45.40
46366;DHT22;32073;49.166;8.076;2022-07-23T02:18:43;27.00;45.40
46366;DHT22;32073;49.166;8.076;2022-07-23T02:22:44;26.90;45.40
46366;DHT22;32073;49.166;8.076;2022-07-23T02:26:45;26.80;45.40
46366;DHT22;32073;49.166;8.076;2022-07-23T02:30:45;26.80;45.60
46366;DHT22;32073;49.166;8.076;2022-07-23T02:34:46;26.80;45.70
46366;DHT22;32073;49.166;8.076;2022-07-23T02:38:47;26.80;45.80
46366;DHT22;32073;49.166;8.076;2022-07-23T02:42:48;26.70;45.80
46366;DHT22;32073;49.166;8.076;2022-07-23T02:46:49;26.70;45.90
46366;DHT22;32073;49.166;8.076;2022-07-23T02:50:49;26.70;45.90
46366;DHT22;32073;49.166;8.076;2022-07-23T02:54:52;26.70;45.90
46366;DHT22;32073;49.166;8.076;2022-07-23T02:58:52;26.60;46.00
46366;DHT22;32073;49.166;8.076;2022-07-23T03:02:53;26.60;46.10
46366;DHT22;32073;49.166;8.076;2022-07-23T03:06:54;26.50;46.10
46366;DHT22;32073;49.166;8.076;2022-07-23T03:10:54;26.50;46.30
46366;DHT22;32073;49.166;8.076;2022-07-23T03:14:55;26.40;46.40
46366;DHT22;32073;49.166;8.076;2022-07-23T03:18:56;26.50;46.50
46366;DHT22;32073;49.166;8.076;2022-07-23T03:22:56;26.50;46.60
46366;DHT22;32073;49.166;8.076;2022-07-23T03:26:57;26.50;46.60
46366;DHT22;32073;49.166;8.076;2022-07-23T03:30:58;26.60;46.80
46366;DHT22;32073;49.166;8.076;2022-07-23T03:34:58;26.50;46.60
46366;DHT22;32073;49.166;8.076;2022-07-23T03:38:59;26.50;46.70
46366;DHT22;32073;49.166;8.076;2022-07-23T03:43:00;26.50;46.80
46366;DHT22;32073;49.166;8.076;2022-07-23T03:47:01;26.50;46.80
46366;DHT22;32073;49.166;8.076;2022-07-23T03:51:02;26.50;47.10
46366;DHT22;32073;49.166;8.076;2022-07-23T03:55:03;26.40;47.80
46366;DHT22;32073;49.166;8.076;2022-07-23T03:59:04;26.40;47.30
46366;DHT22;32073;49.166;8.076;2022-07-23T04:03:05;26.30;47.30
46366;DHT22;32073;49.166;8.076;2022-07-23T04:07:06;26.30;47.40
46366;DHT22;32073;49.166;8.076;2022-07-23T04:11:08;26.30;47.40
46366;DHT22;32073;49.166;8.076;2022-07-23T04:15:08;26.30;47.40
46366;DHT22;32073;49.166;8.076;2022-07-23T04:19:09;26.30;47.50
46366;DHT22;32073;49.166;8.076;2022-07-23T04:23:10;26.30;47.60
46366;DHT22;32073;49.166;8.076;2022-07-23T04:27:11;26.30;47.70
46366;DHT22;32073;49.166;8.076;2022-07-23T04:31:12;26.20;47.80
46366;DHT22;32073;49.166;8.076;2022-07-23T04:35:12;26.30;48.10
46366;DHT22;32073;49.166;8.076;2022-07-23T04:39:13;26.20;48.70
46366;DHT22;32073;49.166;8.076;2022-07-23T04:43:14;26.10;48.70
46366;DHT22;32073;49.166;8.076;2022-07-23T04:47:15;26.00;48.80
46366;DHT22;32073;49.166;8.076;2022-07-23T04:51:15;26.00;49.00
46366;DHT22;32073;49.166;8.076;2022-07-23T04:55:16;26.00;49.50
46366;DHT22;32073;49.166;8.076;2022-07-23T04:59:17;25.90;49.80
46366;DHT22;32073;49.166;8.076;2022-07-23T05:03:18;25.80;49.70
46366;DHT22;32073;49.166;8.076;2022-07-23T05:07:18;25.80;50.20
46366;DHT22;32073;49.166;8.076;2022-07-23T05:11:19;25.70;50.20
46366;DHT22;32073;49.166;8.076;2022-07-23T05:15:20;25.60;50.30
46366;DHT22;32073;49.166;8.076;2022-07-23T05:19:22;25.60;50.90
46366;DHT22;32073;49.166;8.076;2022-07-23T05:23:22;25.60;51.10
46366;DHT22;32073;49.166;8.076;2022-07-23T05:27:23;25.50;51.30
46366;DHT22;32073;49.166;8.076;2022-07-23T05:31:24;25.50;51.50
46366;DHT22;32073;49.166;8.076;2022-07-23T05:35:25;25.50;51.70
46366;DHT22;32073;49.166;8.076;2022-07-23T05:39:26;25.50;51.90
46366;DHT22;32073;49.166;8.076;2022-07-23T05:43:27;25.60;52.10
46366;DHT22;32073;49.166;8.076;2022-07-23T05:47:28;25.60;52.50
46366;DHT22;32073;49.166;8.076;2022-07-23T05:51:28;25.70;53.00
46366;DHT22;32073;49.166;8.076;2022-07-23T05:55:29;25.70;52.90
46366;DHT22;32073;49.166;8.076;2022-07-23T05:59:31;25.80;52.90
46366;DHT22;32073;49.166;8.076;2022-07-23T06:03:32;25.80;52.80
46366;DHT22;32073;49.166;8.076;2022-07-23T06:07:33;25.80;52.90
46366;DHT22;32073;49.166;8.076;2022-07-23T06:11:35;25.70;52.40
46366;DHT22;32073;49.166;8.076;2022-07-23T06:15:36;25.60;52.80
46366;DHT22;32073;49.166;8.076;2022-07-23T06:19:36;25.50;52.80
46366;DHT22;32073;49.166;8.076;2022-07-23T06:23:37;25.50;53.30
46366;DHT22;32073;49.166;8.076;2022-07-23T06:27:38;25.50;54.10
46366;DHT22;32073;49.166;8.076;2022-07-23T06:31:38;25.50;53.80
46366;DHT22;32073;49.166;8.076;2022-07-23T06:35:39;25.50;54.00
46366;DHT22;32073;49.166;8.076;2022-07-23T06:39:40;25.50;54.20
46366;DHT22;32073;49.166;8.076;2022-07-23T06:43:40;25.60;54.20
46366;DHT22;32073;49.166;8.076;2022-07-23T06:47:41;25.70;54.20
46366;DHT22;32073;49.166;8.076;2022-07-23T06:51:42;25.70;54.30
46366;DHT22;32073;49.166;8.076;2022-07-23T06:55:42;25.80;54.40
46366;DHT22;32073;49.166;8.076;2022-07-23T06:59:43;26.00;55.00
46366;DHT22;32073;49.166;8.076;2022-07-23T07:03:44;26.10;54.60
46366;DHT22;32073;49.166;8.076;2022-07-23T07:07:45;26.20;54.70
46366;DHT22;32073;49.166;8.076;2022-07-23T07:11:45;26.20;54.90
46366;DHT22;32073;49.166;8.076;2022-07-23T07:15:46;26.40;55.20
46366;DHT22;32073;49.166;8.076;2022-07-23T07:19:47;26.50;55.30
46366;DHT22;32073;49.166;8.076;2022-07-23T07:23:47;26.60;55.40
46366;DHT22;32073;49.166;8.076;2022-07-23T07:27:48;26.70;55.40
46366;DHT22;32073;49.166;8.076;2022-07-23T07:31:49;26.80;55.20
46366;DHT22;32073;49.166;8.076;2022-07-23T07:35:49;26.90;55.20
46366;DHT22;32073;49.166;8.076;2022-07-23T07:39:50;27.00;55.10
46366;DHT22;32073;49.166;8.076;2022-07-23T07:43:51;27.20;55.20
46366;DHT22;32073;49.166;8.076;2022-07-23T07:47:52;27.30;55.10
46366;DHT22;32073;49.166;8.076;2022-07-23T07:51:53;27.50;55.00
46366;DHT22;32073;49.166;8.076;2022-07-23T07:55:53;27.70;54.80
46366;DHT22;32073;49.166;8.076;2022-07-23T07:59:54;27.90;54.60
46366;DHT22;32073;49.166;8.076;2022-07-23T08:03:55;28.10;54.00
46366;DHT22;32073;49.166;8.076;2022-07-23T08:07:57;28.10;53.70
46366;DHT22;32073;49.166;8.076;2022-07-23T08:11:58;28.20;53.90
46366;DHT22;32073;49.166;8.076;2022-07-23T08:15:59;28.30;53.90
46366;DHT22;32073;49.166;8.076;2022-07-23T08:20:00;28.40;53.60
46366;DHT22;32073;49.166;8.076;2022-07-23T08:24:00;28.50;53.30
46366;DHT22;32073;49.166;8.076;2022-07-23T08:28:06;28.60;53.30
46366;DHT22;32073;49.166;8.076;2022-07-23T08:32:08;28.60;53.00
46366;DHT22;32073;49.166;8.076;2022-07-23T08:36:08;28.60;52.90
46366;DHT22;32073;49.166;8.076;2022-07-23T08:40:10;28.60;52.70
46366;DHT22;32073;49.166;8.076;2022-07-23T08:44:12;28.60;52.70
46366;DHT22;32073;49.166;8.076;2022-07-23T08:48:16;28.60;52.80
46366;DHT22;32073;49.166;8.076;2022-07-23T08:52:21;28.80;53.00
46366;DHT22;32073;49.166;8.076;2022-07-23T08:56:22;28.80;52.80
46366;DHT22;32073;49.166;8.076;2022-07-23T09:00:23;29.00;52.70
46366;DHT22;32073;49.166;8.076;2022-07-23T09:04:23;29.10;52.40
46366;DHT22;32073;49.166;8.076;2022-07-23T09:08:26;29.10;52.20
46366;DHT22;32073;49.166;8.076;2022-07-23T09:12:36;29.20;52.60
46366;DHT22;32073;49.166;8.076;2022-07-23T09:16:37;29.20;51.90
46366;DHT22;32073;49.166;8.076;2022-07-23T09:20:38;29.20;51.70
46366;DHT22;32073;49.166;8.076;2022-07-23T09:29:21;29.20;51.70
46366;DHT22;32073;49.166;8.076;2022-07-23T09:33:26;29.10;51.20
46366;DHT22;32073;49.166;8.076;2022-07-23T09:37:27;29.00;51.40
46366;DHT22;32073;49.166;8.076;2022-07-23T09:41:35;28.90;51.50
46366;DHT22;32073;49.166;8.076;2022-07-23T09:45:37;29.00;51.00
46366;DHT22;32073;49.166;8.076;2022-07-23T09:49:40;29.10;50.90
46366;DHT22;32073;49.166;8.076;2022-07-23T09:53:40;29.20;50.60
46366;DHT22;32073;49.166;8.076;2022-07-23T09:57:42;29.20;50.30
46366;DHT22;32073;49.166;8.076;2022-07-23T10:01:47;29.30;50.30
46366;DHT22;32073;49.166;8.076;2022-07-23T10:05:48;29.40;50.20
46366;DHT22;32073;49.166;8.076;2022-07-23T10:09:50;29.50;50.00
46366;DHT22;32073;49.166;8.076;2022-07-23T10:13:53;29.60;49.50
46366;DHT22;32073;49.166;8.076;2022-07-23T10:18:03;29.70;49.70
46366;DHT22;32073;49.166;8.076;2022-07-23T10:22:09;29.70;49.50
46366;DHT22;32073;49.166;8.076;2022-07-23T10:26:19;29.80;49.00
46366;DHT22;32073;49.166;8.076;2022-07-23T10:30:39;29.90;48.30
46366;DHT22;32073;49.166;8.076;2022-07-23T10:39:26;30.00;48.60
46366;DHT22;32073;49.166;8.076;2022-07-23T10:43:30;30.00;48.40
46366;DHT22;32073;49.166;8.076;2022-07-23T10:47:31;30.20;48.60
46366;DHT22;32073;49.166;8.076;2022-07-23T10:51:39;30.30;48.30
46366;DHT22;32073;49.166;8.076;2022-07-23T10:55:43;30.40;48.50
46366;DHT22;32073;49.166;8.076;2022-07-23T11:04:01;30.90;48.00
46366;DHT22;32073;49.166;8.076;2022-07-23T11:16:25;31.50;47.60
46366;DHT22;32073;49.166;8.076;2022-07-23T11:20:26;31.60;47.20
46366;DHT22;32073;49.166;8.076;2022-07-23T11:24:26;31.80;47.20
46366;DHT22;32073;49.166;8.076;2022-07-23T11:28:28;32.00;47.00
46366;DHT22;32073;49.166;8.076;2022-07-23T11:32:31;32.10;45.90
46366;DHT22;32073;49.166;8.076;2022-07-23T11:36:51;32.20;45.30
46366;DHT22;32073;49.166;8.076;2022-07-23T11:40:55;32.20;44.80
46366;DHT22;32073;49.166;8.076;2022-07-23T11:44:59;32.20;44.30
46366;DHT22;32073;49.166;8.076;2022-07-23T11:49:03;32.10;44.80
46366;DHT22;32073;49.166;8.076;2022-07-23T11:53:03;32.10;44.50
46366;DHT22;32073;49.166;8.076;2022-07-23T11:57:04;32.20;44.70
46366;DHT22;32073;49.166;8.076;2022-07-23T12:01:05;32.20;45.10
46366;DHT22;32073;49.166;8.076;2022-07-23T12:05:06;32.40;44.70
46366;DHT22;32073;49.166;8.076;2022-07-23T12:09:10;32.50;43.90
46366;DHT22;32073;49.166;8.076;2022-07-23T12:13:17;32.60;44.00
46366;DHT22;32073;49.166;8.076;2022-07-23T12:17:20;32.70;43.70
46366;DHT22;32073;49.166;8.076;2022-07-23T12:21:22;32.70;43.90
46366;DHT22;32073;49.166;8.076;2022-07-23T12:25:25;32.70;43.60
46366;DHT22;32073;49.166;8.076;2022-07-23T12:29:36;32.80;43.30
46366;DHT22;32073;49.166;8.076;2022-07-23T12:33:39;32.90;43.10
46366;DHT22;32073;49.166;8.076;2022-07-23T12:37:42;33.00;42.90
46366;DHT22;32073;49.166;8.076;2022-07-23T12:41:52;33.10;42.70
46366;DHT22;32073;49.166;8.076;2022-07-23T12:46:11;33.20;42.60
46366;DHT22;32073;49.166;8.076;2022-07-23T12:50:41;33.40;42.80
46366;DHT22;32073;49.166;8.076;2022-07-23T12:54:49;33.40;42.40
46366;DHT22;32073;49.166;8.076;2022-07-23T12:58:56;33.40;42.10
46366;DHT22;32073;49.166;8.076;2022-07-23T13:02:59;33.40;41.40
46366;DHT22;32073;49.166;8.076;2022-07-23T13:07:00;33.50;41.10
46366;DHT22;32073;49.166;8.076;2022-07-23T13:11:03;33.50;41.10
46366;DHT22;32073;49.166;8.076;2022-07-23T13:15:05;33.50;40.80
46366;DHT22;32073;49.166;8.076;2022-07-23T13:19:07;33.60;40.90
46366;DHT22;32073;49.166;8.076;2022-07-23T13:23:19;33.60;40.70
46366;DHT22;32073;49.166;8.076;2022-07-23T13:27:21;33.70;40.30
46366;DHT22;32073;49.166;8.076;2022-07-23T13:31:21;33.80;39.80
46366;DHT22;32073;49.166;8.076;2022-07-23T13:35:23;33.80;39.30
46366;DHT22;32073;49.166;8.076;2022-07-23T13:39:24;33.80;39.40
46366;DHT22;32073;49.166;8.076;2022-07-23T13:43:25;33.70;39.50
46366;DHT22;32073;49.166;8.076;2022-07-23T13:47:26;33.70;39.30
46366;DHT22;32073;49.166;8.076;2022-07-23T13:51:27;33.70;39.50
46366;DHT22;32073;49.166;8.076;2022-07-23T13:55:28;33.70;39.40
46366;DHT22;32073;49.166;8.076;2022-07-23T13:59:29;33.80;38.90
46366;DHT22;32073;49.166;8.076;2022-07-23T14:03:30;33.80;38.80
46366;DHT22;32073;49.166;8.076;2022-07-23T14:07:31;33.80;38.80
46366;DHT22;32073;49.166;8.076;2022-07-23T14:11:32;33.80;39.10
46366;DHT22;32073;49.166;8.076;2022-07-23T14:15:33;33.90;38.30
46366;DHT22;32073;49.166;8.076;2022-07-23T14:19:34;33.90;38.10
46366;DHT22;32073;49.166;8.076;2022-07-23T14:23:35;33.90;37.90
46366;DHT22;32073;49.166;8.076;2022-07-23T14:27:36;33.90;37.80
46366;DHT22;32073;49.166;8.076;2022-07-23T14:31:37;33.90;37.80
46366;DHT22;32073;49.166;8.076;2022-07-23T14:35:39;33.90;37.80
46366;DHT22;32073;49.166;8.076;2022-07-23T14:39:40;33.90;38.00
46366;DHT22;32073;49.166;8.076;2022-07-23T14:43:42;33.80;37.80
46366;DHT22;32073;49.166;8.076;2022-07-23T14:47:43;33.90;37.80
46366;DHT22;32073;49.166;8.076;2022-07-23T14:51:43;33.90;38.10
46366;DHT22;32073;49.166;8.076;2022-07-23T14:55:44;33.90;38.00
46366;DHT22;32073;49.166;8.076;2022-07-23T14:59:45;33.90;37.70
46366;DHT22;32073;49.166;8.076;2022-07-23T15:03:46;33.70;37.60
46366;DHT22;32073;49.166;8.076;2022-07-23T15:07:47;33.70;37.70
46366;DHT22;32073;49.166;8.076;2022-07-23T15:11:48;33.50;37.60
46366;DHT22;32073;49.166;8.076;2022-07-23T15:15:49;33.40;37.50
46366;DHT22;32073;49.166;8.076;2022-07-23T15:19:50;33.40;37.30
46366;DHT22;32073;49.166;8.076;2022-07-23T15:23:51;33.30;37.20
46366;DHT22;32073;49.166;8.076;2022-07-23T15:27:52;33.20;36.90
46366;DHT22;32073;49.166;8.076;2022-07-23T15:31:53;33.20;37.30
46366;DHT22;32073;49.166;8.076;2022-07-23T15:35:54;33.10;37.30
46366;DHT22;32073;49.166;8.076;2022-07-23T15:39:59;33.00;37.20
46366;DHT22;32073;49.166;8.076;2022-07-23T15:44:00;33.00;37.20
46366;DHT22;32073;49.166;8.076;2022-07-23T15:48:01;32.90;37.10
46366;DHT22;32073;49.166;8.076;2022-07-23T15:52:02;32.90;37.00
46366;DHT22;32073;49.166;8.076;2022-07-23T15:56:05;32.90;37.10
46366;DHT22;32073;49.166;8.076;2022-07-23T16:00:08;32.80;37.10
46366;DHT22;32073;49.166;8.076;2022-07-23T16:04:09;32.80;37.20
46366;DHT22;32073;49.166;8.076;2022-07-23T16:08:10;32.80;37.10
46366;DHT22;32073;49.166;8.076;2022-07-23T16:12:11;32.70;36.90
46366;DHT22;32073;49.166;8.076;2022-07-23T16:16:12;32.80;37.50
46366;DHT22;32073;49.166;8.076;2022-07-23T16:20:13;32.70;37.00
46366;DHT22;32073;49.166;8.076;2022-07-23T16:24:13;32.70;37.00
46366;DHT22;32073;49.166;8.076;2022-07-23T16:28:14;32.60;36.90
46366;DHT22;32073;49.166;8.076;2022-07-23T16:32:15;32.60;36.70
46366;DHT22;32073;49.166;8.076;2022-07-23T16:36:16;32.60;37.00
46366;DHT22;32073;49.166;8.076;2022-07-23T16:40:17;32.60;37.10
46366;DHT22;32073;49.166;8.076;2022-07-23T16:44:18;32.60;37.00
46366;DHT22;32073;49.166;8.076;2022-07-23T16:48:19;32.60;36.70
46366;DHT22;32073;49.166;8.076;2022-07-23T16:52:20;32.60;36.40
46366;DHT22;32073;49.166;8.076;2022-07-23T16:56:20;32.60;36.80
46366;DHT22;32073;49.166;8.076;2022-07-23T17:00:21;32.60;36.80
46366;DHT22;32073;49.166;8.076;2022-07-23T17:04:22;32.60;36.50
46366;DHT22;32073;49.166;8.076;2022-07-23T17:08:23;32.60;36.40
46366;DHT22;32073;49.166;8.076;2022-07-23T17:12:24;32.60;36.50
46366;DHT22;32073;49.166;8.076;2022-07-23T17:16:24;32.60;36.70
46366;DHT22;32073;49.166;8.076;2022-07-23T17:20:25;32.60;36.30
46366;DHT22;32073;49.166;8.076;2022-07-23T17:24:26;32.60;36.40
46366;DHT22;32073;49.166;8.076;2022-07-23T17:28:27;32.60;36.30
46366;DHT22;32073;49.166;8.076;2022-07-23T17:32:28;32.60;36.40
46366;DHT22;32073;49.166;8.076;2022-07-23T17:36:29;32.60;36.50
46366;DHT22;32073;49.166;8.076;2022-07-23T17:40:30;32.60;36.00
46366;DHT22;32073;49.166;8.076;2022-07-23T17:44:33;32.60;35.90
46366;DHT22;32073;49.166;8.076;2022-07-23T17:48:36;32.50;35.90
46366;DHT22;32073;49.166;8.076;2022-07-23T17:52:52;32.40;36.00
46366;DHT22;32073;49.166;8.076;2022-07-23T17:56:54;32.40;35.90
46366;DHT22;32073;49.166;8.076;2022-07-23T18:00:56;32.40;36.00
46366;DHT22;32073;49.166;8.076;2022-07-23T18:04:57;32.40;36.10
46366;DHT22;32073;49.166;8.076;2022-07-23T18:08:58;32.40;36.10
46366;DHT22;32073;49.166;8.076;2022-07-23T18:12:59;32.30;36.20
46366;DHT22;32073;49.166;8.076;2022-07-23T18:17:00;32.30;36.50
46366;DHT22;32073;49.166;8.076;2022-07-23T18:21:02;32.30;36.50
46366;DHT22;32073;49.166;8.076;2022-07-23T18:25:08;32.30;36.50
46366;DHT22;32073;49.166;8.076;2022-07-23T18:29:10;32.30;36.80
46366;DHT22;32073;49.166;8.076;2022-07-23T18:33:14;32.20;36.80
46366;DHT22;32073;49.166;8.076;2022-07-23T18:37:15;32.10;36.80
46366;DHT22;32073;49.166;8.076;2022-07-23T18:41:16;32.20;37.10
46366;DHT22;32073;49.166;8.076;2022-07-23T18:45:16;32.00;36.80
46366;DHT22;32073;49.166;8.076;2022-07-23T18:49:17;31.90;36.70
46366;DHT22;32073;49.166;8.076;2022-07-23T18:53:18;31.90;36.70
46366;DHT22;32073;49.166;8.076;2022-07-23T18:57:19;31.70;36.70
46366;DHT22;32073;49.166;8.076;2022-07-23T19:01:19;31.60;36.60
46366;DHT22;32073;49.166;8.076;2022-07-23T19:05:20;31.40;36.60
46366;DHT22;32073;49.166;8.076;2022-07-23T19:09:21;31.20;36.70
46366;DHT22;32073;49.166;8.076;2022-07-23T19:13:22;31.10;36.80
46366;DHT22;32073;49.166;8.076;2022-07-23T19:17:23;30.90;36.90
46366;DHT22;32073;49.166;8.076;2022-07-23T19:21:24;30.90;37.10
46366;DHT22;32073;49.166;8.076;2022-07-23T19:25:25;30.70;37.20
46366;DHT22;32073;49.166;8.076;2022-07-23T19:29:26;30.60;37.20
46366;DHT22;32073;49.166;8.076;2022-07-23T19:33:26;30.50;37.50
46366;DHT22;32073;49.166;8.076;2022-07-23T19:37:27;30.40;37.70
46366;DHT22;32073;49.166;8.076;2022-07-23T19:41:28;30.30;37.90
46366;DHT22;32073;49.166;8.076;2022-07-23T19:45:29;30.20;37.90
46366;DHT22;32073;49.166;8.076;2022-07-23T19:49:30;30.10;38.40
46366;DHT22;32073;49.166;8.076;2022-07-23T19:53:32;30.10;38.60
46366;DHT22;32073;49.166;8.076;2022-07-23T19:57:32;30.00;38.70
46366;DHT22;32073;49.166;8.076;2022-07-23T20:01:33;29.90;38.80
46366;DHT22;32073;49.166;8.076;2022-07-23T20:05:35;29.90;39.30
46366;DHT22;32073;49.166;8.076;2022-07-23T20:09:36;29.80;39.20
46366;DHT22;32073;49.166;8.076;2022-07-23T20:13:40;29.80;39.40
46366;DHT22;32073;49.166;8.076;2022-07-23T20:17:41;29.80;39.50
46366;DHT22;32073;49.166;8.076;2022-07-23T20:21:41;29.70;39.70
46366;DHT22;32073;49.166;8.076;2022-07-23T20:25:46;29.70;39.70
46366;DHT22;32073;49.166;8.076;2022-07-23T20:29:47;29.60;40.30
46366;DHT22;32073;49.166;8.076;2022-07-23T20:33:47;29.60;40.10
46366;DHT22;32073;49.166;8.076;2022-07-23T20:37:48;29.50;40.10
46366;DHT22;32073;49.166;8.076;2022-07-23T20:41:49;29.50;40.10
46366;DHT22;32073;49.166;8.076;2022-07-23T20:45:50;29.40;40.20
46366;DHT22;32073;49.166;8.076;2022-07-23T20:49:52;29.40;40.20
46366;DHT22;32073;49.166;8.076;2022-07-23T20:53:53;29.30;40.20
46366;DHT22;32073;49.166;8.076;2022-07-23T20:57:54;29.20;40.20
46366;DHT22;32073;49.166;8.076;2022-07-23T21:01:54;29.10;40.30
46366;DHT22;32073;49.166;8.076;2022-07-23T21:05:56;29.10;40.50
46366;DHT22;32073;49.166;8.076;2022-07-23T21:09:57;29.00;40.50
46366;DHT22;32073;49.166;8.076;2022-07-23T21:13:58;28.90;40.50
46366;DHT22;32073;49.166;8.076;2022-07-23T21:17:59;28.90;40.70
46366;DHT22;32073;49.166;8.076;2022-07-23T21:21:59;28.80;40.70
46366;DHT22;32073;49.166;8.076;2022-07-23T21:26:01;28.80;40.70
46366;DHT22;32073;49.166;8.076;2022-07-23T21:30:03;28.80;41.00
46366;DHT22;32073;49.166;8.076;2022-07-23T21:34:04;28.80;40.90
46366;DHT22;32073;49.166;8.076;2022-07-23T21:38:08;28.80;40.90
46366;DHT22;32073;49.166;8.076;2022-07-23T21:42:08;28.70;40.90
46366;DHT22;32073;49.166;8.076;2022-07-23T21:46:09;28.70;40.90
46366;DHT22;32073;49.166;8.076;2022-07-23T21:50:10;28.60;40.70
46366;DHT22;32073;49.166;8.076;2022-07-23T21:54:11;28.50;40.30
46366;DHT22;32073;49.166;8.076;2022-07-23T21:58:12;28.40;39.90
46366;DHT22;32073;49.166;8.076;2022-07-23T22:02:13;28.30;40.00
46366;DHT22;32073;49.166;8.076;2022-07-23T22:06:13;28.30;40.00
46366;DHT22;32073;49.166;8.076;2022-07-23T22:10:15;28.20;39.90
46366;DHT22;32073;49.166;8.076;2022-07-23T22:14:16;28.20;40.00
46366;DHT22;32073;49.166;8.076;2022-07-23T22:18:16;28.20;39.80
46366;DHT22;32073;49.166;8.076;2022-07-23T22:22:17;28.10;39.70
46366;DHT22;32073;49.166;8.076;2022-07-23T22:26:18;28.00;39.40
46366;DHT22;32073;49.166;8.076;2022-07-23T22:30:19;27.90;39.30
46366;DHT22;32073;49.166;8.076;2022-07-23T22:34:23;27.90;39.20
46366;DHT22;32073;49.166;8.076;2022-07-23T22:38:23;27.90;39.20
46366;DHT22;32073;49.166;8.076;2022-07-23T22:42:24;27.70;39.10
46366;DHT22;32073;49.166;8.076;2022-07-23T22:46:25;27.70;39.10
46366;DHT22;32073;49.166;8.076;2022-07-23T22:50:26;27.60;39.10
46366;DHT22;32073;49.166;8.076;2022-07-23T22:54:26;27.60;39.10
46366;DHT22;32073;49.166;8.076;2022-07-23T22:58:27;27.50;39.10
46366;DHT22;32073;49.166;8.076;2022-07-23T23:02:29;27.40;39.00
46366;DHT22;32073;49.166;8.076;2022-07-23T23:06:29;27.40;39.10
46366;DHT22;32073;49.166;8.076;2022-07-23T23:10:30;27.40;39.30
46366;DHT22;32073;49.166;8.076;2022-07-23T23:14:31;27.40;39.30
46366;DHT22;32073;49.166;8.076;2022-07-23T23:18:32;27.40;39.30
46366;DHT22;32073;49.166;8.076;2022-07-23T23:22:35;27.30;39.30
46366;DHT22;32073;49.166;8.076;2022-07-23T23:26:36;27.20;39.30
46366;DHT22;32073;49.166;8.076;2022-07-23T23:30:37;27.20;39.50
46366;DHT22;32073;49.166;8.076;2022-07-23T23:34:37;27.10;39.50
46366;DHT22;32073;49.166;8.076;2022-07-23T23:38:45;27.10;39.40
46366;DHT22;32073;49.166;8.076;2022-07-23T23:42:47;27.10;39.50
46366;DHT22;32073;49.166;8.076;2022-07-23T23:46:54;27.10;39.30
46366;DHT22;32073;49.166;8.076;2022-07-23T23:50:55;27.10;39.30
46366;DHT22;32073;49.166;8.076;2022-07-23T23:54:57;27.10;39.40
46366;DHT22;32073;49.166;8.076;2022-07-23T23:58:58;27.00;39.40
